createdAt,value
2022-10-08T00:01:41.451Z,14.07
2022-10-08T00:04:08.661Z,18.35
2022-10-08T00:06:35.729Z,14.25
2022-10-08T00:09:05.236Z,18.90
2022-10-08T00:11:33.832Z,14.68
2022-10-08T00:14:02.097Z,16.02
2022-10-08T00:16:29.393Z,14.75
2022-10-08T00:18:59.269Z,13.95
2022-10-08T00:21:30.286Z,19.17
2022-10-08T00:23:58.021Z,19.58
2022-10-08T00:26:26.429Z,15.07
2022-10-08T00:28:54.719Z,15.85
2022-10-08T00:31:23.453Z,13.52
2022-10-08T00:33:55.514Z,15.68
2022-10-08T00:36:23.492Z,14.27
2022-10-08T00:38:55.362Z,16.25
2022-10-08T00:41:23.931Z,14.07
2022-10-08T00:43:52.888Z,13.93
2022-10-08T00:46:41.476Z,16.08
2022-10-08T00:49:11.620Z,17.85
2022-10-08T00:51:49.534Z,19.92
2022-10-08T00:54:17.585Z,18.20
2022-10-08T00:56:44.942Z,14.88
2022-10-08T00:59:12.679Z,16.00
2022-10-08T01:01:43.050Z,18.60
2022-10-08T01:04:11.133Z,21.08
2022-10-08T01:06:46.092Z,18.80
2022-10-08T01:09:19.174Z,16.88
2022-10-08T01:11:51.560Z,18.02
2022-10-08T01:14:41.779Z,24.02
2022-10-08T01:17:27.805Z,19.75
2022-10-08T01:20:13.846Z,18.05
2022-10-08T01:22:58.505Z,24.15
2022-10-08T01:25:46.111Z,17.65
2022-10-08T01:28:17.966Z,22.15
2022-10-08T01:30:52.141Z,19.75
2022-10-08T01:33:23.658Z,22.00
2022-10-08T01:38:20.022Z,21.88
2022-10-08T01:40:48.531Z,18.05
2022-10-08T01:43:17.112Z,21.42
2022-10-08T01:45:47.178Z,20.17
2022-10-08T01:48:17.178Z,20.52
2022-10-08T01:50:53.505Z,18.05
2022-10-08T01:53:21.928Z,22.13
2022-10-08T01:55:51.407Z,23.63
2022-10-08T01:58:20.023Z,19.50
2022-10-08T02:00:48.134Z,21.83
2022-10-08T02:03:15.858Z,24.52
2022-10-08T02:05:48.154Z,22.65
2022-10-08T02:08:15.228Z,24.35
2022-10-08T02:10:42.689Z,23.73
2022-10-08T02:13:10.108Z,24.02
2022-10-08T02:15:43.103Z,25.33
2022-10-08T02:18:13.815Z,24.15
2022-10-08T02:21:04.866Z,26.60
2022-10-08T02:23:35.914Z,25.33
2022-10-08T02:26:04.737Z,25.95
2022-10-08T02:28:43.672Z,24.85
2022-10-08T02:31:10.764Z,26.85
2022-10-08T02:33:44.433Z,28.35
2022-10-08T02:36:12.774Z,25.15
2022-10-08T02:39:00.133Z,24.30
2022-10-08T02:41:31.155Z,26.38
2022-10-08T02:43:59.629Z,24.80
2022-10-08T02:46:28.707Z,25.70
2022-10-08T02:49:01.896Z,25.83
2022-10-08T02:51:30.497Z,29.13
2022-10-08T02:53:58.869Z,31.30
2022-10-08T02:56:28.823Z,26.58
2022-10-08T02:58:56.343Z,25.90
2022-10-08T03:01:36.473Z,28.33
2022-10-08T03:04:06.060Z,26.35
2022-10-08T03:06:33.263Z,31.08
2022-10-08T03:09:01.555Z,30.42
2022-10-08T03:11:31.217Z,32.60
2022-10-08T03:13:58.845Z,35.15
2022-10-08T03:16:28.608Z,31.23
2022-10-08T03:18:58.986Z,33.67
2022-10-08T03:21:28.147Z,31.98
2022-10-08T03:23:55.258Z,29.42
2022-10-08T03:26:22.489Z,38.53
2022-10-08T03:28:49.540Z,35.85
2022-10-08T03:31:16.617Z,32.58
2022-10-08T03:33:43.805Z,34.00
2022-10-08T03:36:10.919Z,35.42
2022-10-08T03:38:38.010Z,38.20
2022-10-08T03:41:05.061Z,39.28
2022-10-08T03:43:33.258Z,38.67
2022-10-08T03:46:00.668Z,37.35
2022-10-08T03:48:28.116Z,38.80
2022-10-08T03:51:02.694Z,37.17
2022-10-08T03:53:32.967Z,46.13
2022-10-08T03:56:03.486Z,38.33
2022-10-08T03:58:30.901Z,35.58
2022-10-08T04:01:01.730Z,38.90
2022-10-08T04:03:29.339Z,39.72
2022-10-08T04:05:56.867Z,43.35
2022-10-08T04:08:24.453Z,35.67
2022-10-08T04:10:51.513Z,40.85
2022-10-08T04:13:19.071Z,48.72
2022-10-08T04:15:50.811Z,39.47
2022-10-08T04:18:18.431Z,48.40
2022-10-08T04:20:45.899Z,42.05
2022-10-08T04:23:12.997Z,46.70
2022-10-08T04:25:48.946Z,48.25
2022-10-08T04:28:16.040Z,42.53
2022-10-08T04:30:43.167Z,41.42
2022-10-08T04:33:10.243Z,42.45
2022-10-08T04:35:40.356Z,49.00
2022-10-08T04:38:07.390Z,50.38
2022-10-08T04:40:34.465Z,46.45
2022-10-08T04:43:01.523Z,46.63
2022-10-08T04:45:28.653Z,56.75
2022-10-08T04:47:55.752Z,64.47
2022-10-08T04:50:22.834Z,44.88
2022-10-08T04:52:50.012Z,56.25
2022-10-08T04:55:17.189Z,66.03
2022-10-08T04:57:44.245Z,46.38
2022-10-08T05:00:18.104Z,74.03
2022-10-08T05:02:46.722Z,53.60
2022-10-08T05:05:14.979Z,52.15
2022-10-08T05:07:42.036Z,57.08
2022-10-08T05:10:09.347Z,80.18
2022-10-08T05:12:36.414Z,44.08
2022-10-08T05:15:03.540Z,45.15
2022-10-08T05:17:30.597Z,50.53
2022-10-08T05:19:57.655Z,86.25
2022-10-08T05:22:24.715Z,35.67
2022-10-08T05:24:51.802Z,33.08
2022-10-08T05:27:18.858Z,26.75
2022-10-08T05:29:45.916Z,29.23
2022-10-08T05:32:12.984Z,20.40
2022-10-08T05:34:40.067Z,18.83
2022-10-08T05:37:07.191Z,20.58
2022-10-08T05:39:34.263Z,20.77
2022-10-08T05:42:01.333Z,21.02
2022-10-08T05:44:28.451Z,21.58
2022-10-08T05:46:55.640Z,18.77
2022-10-08T05:49:23.538Z,20.02
2022-10-08T05:51:50.923Z,20.77
2022-10-08T05:54:18.236Z,18.60
2022-10-08T05:56:45.334Z,20.48
2022-10-08T05:59:15.945Z,21.33
2022-10-08T06:01:43.070Z,20.27
2022-10-08T06:04:10.963Z,21.10
2022-10-08T06:06:38.634Z,16.60
2022-10-08T06:09:06.292Z,15.40
2022-10-08T06:11:34.149Z,21.23
2022-10-08T06:14:01.578Z,15.95
2022-10-08T06:16:29.613Z,17.08
2022-10-08T06:18:56.765Z,19.40
2022-10-08T06:21:25.233Z,16.48
2022-10-08T06:23:56.654Z,18.02
2022-10-08T06:28:50.829Z,16.95
2022-10-08T06:31:18.052Z,16.15
2022-10-08T06:33:45.417Z,17.85
2022-10-08T06:36:15.206Z,20.95
2022-10-08T06:38:42.376Z,19.42
2022-10-08T06:41:09.450Z,15.93
2022-10-08T06:43:36.553Z,18.02
2022-10-08T06:46:06.609Z,15.48
2022-10-08T06:48:33.741Z,17.98
2022-10-08T06:51:01.429Z,16.50
2022-10-08T06:53:28.910Z,22.58
2022-10-08T06:55:59.874Z,15.52
2022-10-08T06:58:27.215Z,17.05
2022-10-08T07:01:04.734Z,12.68
2022-10-08T07:03:31.852Z,15.43
2022-10-08T07:06:09.630Z,15.00
2022-10-08T07:08:37.086Z,15.43
2022-10-08T07:11:05.413Z,16.17
2022-10-08T07:13:32.693Z,15.35
2022-10-08T07:16:06.714Z,13.43
2022-10-08T07:18:34.564Z,14.88
2022-10-08T07:21:01.705Z,14.98
2022-10-08T07:23:28.845Z,15.52
2022-10-08T07:26:16.140Z,15.35
2022-10-08T07:28:44.811Z,17.58
2022-10-08T07:31:16.004Z,15.05
2022-10-08T07:36:11.712Z,15.73
2022-10-08T07:38:39.319Z,13.10
2022-10-08T07:41:06.806Z,12.27
2022-10-08T07:43:33.946Z,18.70
2022-10-08T07:46:01.040Z,15.05
2022-10-08T07:48:34.067Z,12.48
2022-10-08T09:34:04.637Z,8.85
2022-10-08T10:00:31.401Z,10.57
2022-10-08T10:03:00.503Z,11.30
2022-10-08T10:05:29.469Z,11.77
2022-10-08T10:07:56.641Z,8.95
2022-10-08T10:10:37.272Z,10.25
2022-10-08T10:13:04.333Z,8.15
2022-10-08T10:15:41.977Z,11.75
2022-10-08T10:18:12.362Z,9.20
2022-10-08T10:20:44.103Z,11.95
2022-10-08T10:23:11.187Z,9.68
2022-10-08T10:25:47.462Z,13.95
2022-10-08T10:28:23.654Z,9.70
2022-10-08T10:31:02.807Z,9.98
2022-10-08T10:33:32.909Z,9.98
2022-10-08T10:36:02.478Z,9.30
2022-10-08T10:38:30.562Z,11.25
2022-10-08T10:41:06.961Z,9.70
2022-10-08T10:43:54.768Z,12.25
2022-10-08T10:46:42.710Z,22.98
2022-10-08T10:49:14.381Z,8.88
2022-10-08T10:51:44.287Z,10.27
2022-10-08T10:54:17.380Z,34.10
2022-10-08T10:56:48.229Z,10.65
2022-10-08T10:59:37.524Z,8.32
2022-10-08T11:02:12.619Z,9.35
2022-10-08T11:04:39.828Z,11.32
2022-10-08T11:07:27.206Z,14.32
2022-10-08T11:10:06.277Z,10.20
2022-10-08T11:12:43.386Z,20.40
2022-10-08T11:15:33.236Z,16.25
2022-10-08T11:18:15.686Z,15.55
2022-10-08T11:20:45.566Z,15.43
2022-10-08T11:23:34.758Z,14.48
2022-10-08T11:26:21.833Z,13.20
2022-10-08T11:28:52.593Z,24.42
2022-10-08T11:31:41.575Z,14.93
2022-10-08T11:34:21.412Z,13.35
2022-10-08T11:37:03.901Z,11.70
2022-10-08T11:39:56.115Z,10.93
2022-10-08T11:42:42.977Z,20.77
2022-10-08T11:45:15.357Z,21.70
2022-10-08T11:47:42.408Z,18.57
2022-10-08T11:50:29.557Z,11.77
2022-10-08T11:52:59.024Z,9.27
2022-10-08T11:55:30.473Z,9.55
2022-10-08T11:58:08.074Z,28.17
2022-10-08T12:00:38.915Z,15.40
2022-10-08T12:03:22.064Z,11.53
2022-10-08T12:05:53.514Z,13.95
2022-10-08T12:08:39.484Z,18.48
2022-10-08T12:11:25.484Z,11.95
2022-10-08T12:14:11.951Z,20.10
2022-10-08T12:16:45.089Z,12.90
2022-10-08T12:19:32.114Z,19.30
2022-10-08T12:22:00.447Z,31.23
2022-10-08T12:24:39.797Z,86.38
2022-10-08T12:27:19.007Z,86.97
2022-10-08T12:29:55.104Z,112.75
2022-10-08T12:32:23.954Z,38.85
2022-10-08T12:34:51.091Z,43.97
2022-10-08T12:37:28.202Z,38.95
2022-10-08T12:39:56.453Z,22.25
2022-10-08T12:42:26.931Z,33.75
2022-10-08T12:45:09.344Z,25.80
2022-10-08T12:47:43.863Z,35.90
2022-10-08T12:50:23.092Z,35.47
2022-10-08T12:52:50.299Z,28.52
2022-10-08T12:55:19.373Z,20.75
2022-10-08T12:57:47.821Z,16.90
2022-10-08T13:00:25.802Z,13.63
2022-10-08T13:03:20.253Z,25.58
2022-10-08T13:05:47.730Z,15.95
2022-10-08T13:08:18.297Z,14.35
2022-10-08T13:10:45.431Z,15.15
2022-10-08T13:13:31.290Z,20.08
2022-10-08T13:16:02.022Z,15.23
2022-10-08T13:18:30.440Z,19.38
2022-10-08T13:20:57.793Z,12.32
2022-10-08T13:23:45.162Z,16.73
2022-10-08T13:26:49.586Z,11.90
2022-10-08T13:29:26.422Z,14.75
2022-10-08T13:31:58.172Z,17.02
2022-10-08T13:34:30.889Z,18.00
2022-10-08T13:36:59.189Z,14.93
2022-10-08T13:39:33.886Z,21.60
2022-10-08T13:42:02.774Z,15.20
2022-10-08T13:44:30.181Z,21.23
2022-10-08T13:47:03.338Z,19.95
2022-10-08T13:49:30.882Z,18.80
2022-10-08T13:51:58.774Z,18.65
2022-10-08T13:54:27.826Z,15.20
2022-10-08T13:56:55.028Z,14.63
2022-10-08T13:59:24.933Z,17.77
2022-10-08T14:01:54.107Z,13.73
2022-10-08T14:04:21.198Z,26.23
2022-10-08T14:06:53.388Z,15.65
2022-10-08T14:09:22.092Z,19.60
2022-10-08T14:11:55.078Z,16.73
2022-10-08T14:14:22.693Z,17.65
2022-10-08T14:16:49.972Z,21.17
2022-10-08T14:19:18.168Z,14.75
2022-10-08T14:21:45.350Z,18.05
2022-10-08T14:24:13.423Z,15.95
2022-10-08T14:26:40.598Z,17.35
2022-10-08T14:29:07.739Z,16.05
2022-10-08T14:31:34.972Z,21.40
2022-10-08T14:34:02.112Z,20.27
2022-10-08T14:36:37.050Z,23.05
2022-10-08T14:39:04.920Z,28.13
2022-10-08T14:41:32.362Z,18.77
2022-10-08T14:43:59.892Z,15.25
2022-10-08T14:46:27.124Z,66.13
2022-10-08T14:48:54.191Z,18.92
2022-10-08T14:51:21.264Z,18.63
2022-10-08T14:53:50.151Z,13.05
2022-10-08T14:56:17.310Z,16.05
2022-10-08T14:58:44.542Z,20.35
2022-10-08T15:01:11.659Z,17.75
2022-10-08T15:03:38.970Z,15.48
2022-10-08T15:06:06.168Z,16.15
2022-10-08T15:08:34.305Z,61.33
2022-10-08T15:11:04.592Z,19.13
2022-10-08T15:13:31.668Z,21.47
2022-10-08T15:15:58.897Z,17.25
2022-10-08T15:18:26.088Z,14.52
2022-10-08T15:20:56.834Z,19.83
2022-10-08T15:23:24.433Z,16.65
2022-10-08T15:26:01.804Z,19.10
2022-10-08T15:28:29.401Z,15.68
2022-10-08T15:31:07.818Z,35.60
2022-10-08T15:33:38.989Z,19.50
2022-10-08T15:38:33.119Z,21.67
2022-10-08T15:41:03.410Z,21.73
2022-10-08T15:43:33.386Z,29.43
2022-10-08T15:46:00.798Z,28.52
2022-10-08T15:48:28.050Z,34.80
2022-10-08T15:50:59.108Z,43.67
2022-10-08T15:53:26.325Z,53.15
2022-10-08T15:55:57.019Z,57.17
2022-10-08T15:58:48.983Z,32.75
2022-10-08T16:01:12.769Z,28.92
2022-10-08T16:03:41.002Z,27.70
2022-10-08T16:06:09.291Z,27.77
2022-10-08T16:08:38.172Z,32.25
2022-10-08T16:11:24.067Z,29.25
2022-10-08T16:13:52.763Z,27.45
2022-10-08T16:16:20.357Z,32.65
2022-10-08T16:18:51.055Z,79.68
2022-10-08T16:21:18.656Z,212.93
2022-10-08T16:23:45.779Z,128.00
2022-10-08T16:26:13.710Z,100.40
2022-10-08T16:28:41.570Z,102.38
2022-10-08T16:31:11.229Z,98.03
2022-10-08T16:33:38.623Z,93.63
2022-10-08T16:36:07.011Z,79.22
2022-10-08T16:38:34.849Z,73.30
2022-10-08T16:41:12.503Z,68.50
2022-10-08T16:43:39.656Z,75.15
2022-10-08T16:46:13.630Z,71.28
2022-10-08T16:48:40.841Z,64.85
2022-10-08T16:51:08.065Z,61.55
2022-10-08T16:53:35.158Z,54.33
2022-10-08T16:56:02.916Z,50.03
2022-10-08T16:58:30.126Z,43.08
2022-10-08T17:00:57.408Z,33.28
2022-10-08T17:03:24.615Z,36.05
2022-10-08T17:05:51.723Z,44.97
2022-10-08T17:08:18.812Z,39.58
2022-10-08T17:10:45.943Z,47.65
2022-10-08T17:13:13.087Z,59.85
2022-10-08T17:15:40.221Z,123.72
2022-10-08T17:18:07.515Z,244.23
2022-10-08T17:20:34.827Z,172.07
2022-10-08T17:23:01.924Z,123.25
2022-10-08T17:25:29.239Z,108.85
2022-10-08T17:27:56.400Z,60.70
2022-10-08T17:30:23.468Z,48.95
2022-10-08T17:32:50.683Z,62.05
2022-10-08T17:35:17.908Z,66.38
2022-10-08T17:37:45.024Z,62.00
2022-10-08T17:40:12.136Z,79.32
2022-10-08T17:42:39.726Z,106.32
2022-10-08T17:45:07.110Z,106.20
2022-10-08T17:47:34.224Z,121.53
2022-10-08T17:50:01.293Z,160.55
2022-10-08T17:52:28.381Z,153.35
2022-10-08T17:54:55.504Z,155.85
2022-10-08T17:57:22.708Z,111.05
2022-10-08T17:59:49.921Z,105.05
2022-10-08T18:02:17.106Z,104.07
2022-10-08T18:04:44.223Z,71.15
2022-10-08T18:07:12.365Z,79.53
2022-10-08T18:09:39.433Z,64.50
2022-10-08T18:12:06.623Z,68.80
2022-10-08T18:14:33.811Z,73.32
2022-10-08T18:17:00.895Z,66.05
2022-10-08T18:19:28.082Z,67.05
2022-10-08T18:30:11.828Z,72.78
2022-10-08T18:32:39.543Z,76.03
2022-10-08T18:35:07.241Z,67.72
2022-10-08T18:37:35.025Z,69.63
2022-10-08T18:40:02.233Z,66.70
2022-10-08T18:42:29.973Z,68.40
2022-10-08T18:44:57.920Z,75.78
2022-10-08T18:47:25.702Z,70.10
2022-10-08T18:49:53.801Z,65.03
2022-10-08T18:52:23.203Z,59.78
2022-10-08T18:54:50.408Z,63.60
2022-10-08T18:57:17.558Z,59.20
2022-10-08T18:59:44.732Z,53.20
2022-10-08T19:02:12.181Z,51.83
2022-10-08T19:04:40.095Z,48.75
2022-10-08T19:07:07.345Z,45.83
2022-10-08T19:09:35.088Z,42.10
2022-10-08T19:12:02.362Z,42.08
2022-10-08T19:14:30.075Z,38.15
2022-10-08T19:16:57.969Z,34.53
2022-10-08T19:19:31.971Z,35.05
2022-10-08T19:22:01.405Z,31.38
2022-10-08T19:24:29.701Z,28.65
2022-10-08T19:26:58.253Z,27.90
2022-10-08T19:29:29.756Z,27.10
2022-10-08T19:31:57.536Z,26.90
2022-10-08T19:34:26.609Z,27.20
2022-10-08T19:36:58.377Z,25.33
2022-10-08T19:39:27.682Z,25.80
2022-10-08T19:41:55.004Z,22.42
2022-10-08T19:44:22.638Z,25.23
2022-10-08T19:46:50.160Z,27.42
2022-10-08T19:49:17.574Z,21.23
2022-10-08T19:51:45.738Z,29.73
2022-10-08T19:54:16.593Z,24.00
2022-10-08T19:56:44.630Z,30.83
2022-10-08T19:59:12.489Z,27.48
2022-10-08T20:01:40.942Z,34.58
2022-10-08T20:04:10.101Z,35.20
2022-10-08T20:06:39.498Z,27.10
2022-10-08T20:09:09.888Z,24.92
2022-10-08T20:11:37.348Z,30.10
2022-10-08T20:14:05.291Z,30.73
2022-10-08T20:16:34.057Z,30.42
2022-10-08T20:19:05.761Z,30.63
2022-10-08T20:21:34.882Z,31.02
2022-10-08T20:24:02.985Z,35.42
2022-10-08T20:26:31.819Z,32.85
2022-10-08T20:29:00.408Z,27.02
2022-10-08T20:31:30.019Z,26.20
2022-10-08T20:34:01.489Z,45.78
2022-10-08T20:38:59.880Z,27.33
2022-10-08T20:41:30.975Z,25.98
2022-10-08T20:44:03.014Z,22.73
2022-10-08T20:46:34.233Z,25.10
2022-10-08T20:49:02.466Z,21.67
2022-10-08T20:51:30.373Z,21.80
2022-10-08T20:53:59.408Z,22.05
2022-10-08T20:56:27.454Z,26.02
2022-10-08T20:58:55.036Z,22.35
2022-10-08T21:01:30.561Z,20.60
2022-10-08T21:03:58.317Z,20.95
2022-10-08T21:06:26.715Z,22.67
2022-10-08T21:08:54.736Z,22.60
2022-10-08T21:11:23.402Z,28.35
2022-10-08T21:13:51.362Z,23.90
2022-10-08T21:16:22.857Z,24.25
2022-10-08T21:18:50.897Z,25.25
2022-10-08T21:21:18.879Z,21.90
2022-10-08T21:23:46.654Z,25.83
2022-10-08T21:26:14.424Z,22.90
2022-10-08T21:28:42.467Z,25.13
2022-10-08T21:31:11.259Z,20.83
2022-10-08T21:33:39.868Z,20.98
2022-10-08T21:36:09.178Z,18.95
2022-10-08T21:38:36.336Z,19.08
2022-10-08T21:41:13.265Z,17.73
2022-10-08T21:43:42.105Z,21.00
2022-10-08T21:46:10.949Z,17.88
2022-10-08T21:48:38.693Z,20.80
2022-10-08T21:51:13.235Z,23.48
2022-10-08T21:53:41.832Z,21.05
2022-10-08T21:56:11.416Z,20.20
2022-10-08T21:58:39.928Z,18.90
2022-10-08T22:01:09.069Z,21.20
2022-10-08T22:03:36.496Z,20.55
2022-10-08T22:06:04.617Z,19.42
2022-10-08T22:08:32.125Z,21.20
2022-10-08T22:10:59.738Z,20.95
2022-10-08T22:13:27.606Z,19.75
2022-10-08T22:15:55.790Z,17.27
2022-10-08T22:18:27.296Z,23.63
2022-10-08T22:20:58.213Z,23.30
2022-10-08T22:23:28.630Z,38.75
2022-10-08T22:26:03.930Z,16.33
2022-10-08T22:28:31.703Z,24.38
2022-10-08T22:31:01.095Z,20.48
2022-10-08T22:33:37.288Z,18.25
2022-10-08T22:36:08.158Z,15.45
2022-10-08T22:38:36.920Z,22.17
2022-10-08T22:41:15.339Z,18.77
2022-10-08T22:43:43.466Z,16.92
2022-10-08T22:46:15.386Z,19.48
2022-10-08T22:48:43.199Z,16.70
2022-10-08T22:51:14.831Z,14.95
2022-10-08T22:53:42.795Z,17.10
2022-10-08T22:56:15.092Z,15.05
2022-10-08T22:58:43.458Z,13.38
2022-10-08T23:01:12.120Z,14.95
2022-10-08T23:03:40.105Z,13.65
2022-10-08T23:06:08.945Z,19.90
2022-10-08T23:08:38.190Z,14.88
2022-10-08T23:11:05.789Z,14.80
2022-10-08T23:13:33.225Z,14.02
2022-10-08T23:16:00.347Z,14.75
2022-10-08T23:18:27.601Z,17.75
2022-10-08T23:20:54.801Z,15.32
2022-10-08T23:23:22.095Z,12.00
2022-10-08T23:25:59.544Z,14.88
2022-10-08T23:28:27.141Z,15.57
2022-10-08T23:30:54.587Z,13.68
2022-10-08T23:33:22.972Z,13.43
2022-10-08T23:35:56.653Z,14.15
2022-10-08T23:38:24.121Z,11.93
2022-10-08T23:40:51.534Z,11.02
2022-10-08T23:43:19.424Z,11.45
2022-10-08T23:45:47.230Z,11.13
2022-10-08T23:48:15.173Z,13.75
2022-10-08T23:50:42.968Z,13.30
2022-10-08T23:53:10.769Z,13.02
2022-10-08T23:55:38.559Z,14.13
2022-10-08T23:58:06.222Z,11.45
